1927 NOT_NAMED (1927238N12146)


IBTrACS version v04r00. Visit IBTrACS website for data access.
Please direct all questions to the IBTrACS Q and A forum

Storm track - Intensity - Wind Radii - Intensity Data - Source Data - All data

Summary Information

Storm ID 1927238N12146
Start Aug 25 22Z
End Aug 30 22Z
ATCF IDs
Track status Best track data.

Storm track plot

Map of storm track

Intensity plots

No Intensity information for this storm


Radial wind information

No radial wind information for this storm


Position and Intensity Table

BASIN ISO_TIME_________ NATURE LAT LON
degrees north degrees east
WP 1927-08-25 22:00:00 NR 12.20 146.30
WP 1927-08-26 00:00:00 NR 12.51 145.85
WP 03:00:00 NR 12.98 145.18
WP 06:00:00 NR 13.43 144.52
WP 09:00:00 NR 13.86 143.90
WP 10:00:00 NR 14.00 143.70
WP 12:00:00 NR 14.27 143.31
WP 15:00:00 NR 14.65 142.76
WP 18:00:00 NR 15.02 142.20
WP 21:00:00 NR 15.38 141.61
WP 22:00:00 NR 15.50 141.40
WP 1927-08-27 00:00:00 NR 15.74 140.95
WP 03:00:00 NR 16.10 140.23
WP 06:00:00 NR 16.45 139.48
WP 09:00:00 NR 16.79 138.74
WP 10:00:00 NR 16.90 138.50
WP 12:00:00 NR 17.11 138.03
WP 15:00:00 NR 17.42 137.34
WP 18:00:00 NR 17.72 136.66
WP 21:00:00 NR 18.01 136.01
WP 22:00:00 NR 18.10 135.80
WP 1927-08-28 00:00:00 NR 18.29 135.39
WP 03:00:00 NR 18.58 134.79
WP 06:00:00 NR 18.85 134.21
WP 09:00:00 NR 19.12 133.61
WP 10:00:00 NR 19.20 133.40
WP 12:00:00 NR 19.36 132.97
WP 15:00:00 NR 19.60 132.30
WP 18:00:00 NR 19.82 131.62
WP 21:00:00 NR 20.03 130.93
WP 22:00:00 NR 20.10 130.70
WP 1927-08-29 00:00:00 NR 20.22 130.24
WP 03:00:00 NR 20.40 129.53
WP 06:00:00 NR 20.59 128.83
WP 09:00:00 NR 20.81 128.13
WP 10:00:00 NR 20.90 127.90
WP 12:00:00 NR 21.06 127.38
WP 15:00:00 NR 21.34 126.62
WP 18:00:00 NR 21.68 125.91
WP 21:00:00 NR 22.13 125.35
WP 22:00:00 NR 22.30 125.20
WP 1927-08-30 00:00:00 NR 22.74 124.88
WP 03:00:00 NR 23.50 124.55
WP 06:00:00 NR 24.28 124.45
WP 09:00:00 NR 24.99 124.65
WP 10:00:00 NR 25.20 124.80
WP 12:00:00 NR 25.55 125.22
WP 15:00:00 NR 25.93 126.13
WP 18:00:00 NR 26.18 127.28
WP 21:00:00 NR 26.35 128.56
WP 22:00:00 NR 26.40 129.00

Source Information

Agency Information
USA
TOKYO
CMA
HKO
NEWDELHI
REUNION
BOM
NADI
WELLINGTON
DS824
TD9636 cons_worldwide_trop_cyclone_18710101-19891231-003:Line=7847
TD9635
NEUMANN
MLC

All available IBTrACS Data

SEASON BASIN SUBBASIN ISO_TIME_________ NATURE LAT LON DIST2LAND LANDFALL IFLAG USA SSHS TD9636 LAT TD9636 LON TD9636 STAGE STORM SPEED STORM DIR
Year degrees north degrees east km km 1 degrees north degrees east kts degrees
1927 WP MM 1927-08-25 22:00:00 NR 12.20 146.30 1602 1602 __________O___ -1 12.20 146.30 2 16 305
1927 WP MM 1927-08-26 00:00:00 NR 12.51 145.85 1638 1638 __________P___ -1 12.51 145.85 2 16 305
1927 WP MM 03:00:00 NR 12.98 145.18 1698 1699 __________P___ -1 12.98 145.18 2 16 305
1927 WP MM 06:00:00 NR 13.43 144.52 1751 1763 __________P___ -1 13.43 144.52 2 15 305
1927 WP MM 09:00:00 NR 13.86 143.90 1817 1817 __________P___ -1 13.86 143.90 2 15 306
1927 WP MM 10:00:00 NR 14.00 143.70 1831 1831 __________O___ -1 14.00 143.70 2 14 306
1927 WP MM 12:00:00 NR 14.27 143.31 1867 1864 __________P___ -1 14.27 143.31 2 14 306
1927 WP MM 15:00:00 NR 14.65 142.76 1889 1832 __________P___ -1 14.65 142.76 2 13 305
1927 WP MM 18:00:00 NR 15.02 142.20 1832 1775 __________P___ -1 15.02 142.20 2 13 303
1927 WP MM 21:00:00 NR 15.38 141.61 1775 1756 __________P___ -1 15.38 141.61 2 14 302
1927 WP MM 22:00:00 NR 15.50 141.40 1756 1707 __________O___ -1 15.50 141.40 7 15 300
1927 WP MM 1927-08-27 00:00:00 NR 15.74 140.95 1707 1644 __________P___ -1 15.74 140.95 7 15 298
1927 WP MM 03:00:00 NR 16.10 140.23 1644 1580 __________P___ -1 16.10 140.23 7 16 297
1927 WP MM 06:00:00 NR 16.45 139.48 1583 1511 __________P___ -1 16.45 139.48 7 16 296
1927 WP MM 09:00:00 NR 16.79 138.74 1511 1494 __________P___ -1 16.79 138.74 7 16 295
1927 WP MM 10:00:00 NR 16.90 138.50 1494 1452 __________O___ -1 16.90 138.50 7 15 295
1927 WP MM 12:00:00 NR 17.11 138.03 1452 1395 __________P___ -1 17.11 138.03 7 15 295
1927 WP MM 15:00:00 NR 17.42 137.34 1395 1351 __________P___ -1 17.42 137.34 7 14 295
1927 WP MM 18:00:00 NR 17.72 136.66 1351 1300 __________P___ -1 17.72 136.66 7 14 295
1927 WP MM 21:00:00 NR 18.01 136.01 1300 1287 __________P___ -1 18.01 136.01 7 14 295
1927 WP MM 22:00:00 NR 18.10 135.80 1287 1262 __________O___ -1 18.10 135.80 7 13 296
1927 WP MM 1927-08-28 00:00:00 NR 18.29 135.39 1262 1227 __________P___ -1 18.29 135.39 7 13 297
1927 WP MM 03:00:00 NR 18.58 134.79 1227 1180 __________P___ -1 18.58 134.79 7 13 297
1927 WP MM 06:00:00 NR 18.85 134.21 1185 1140 __________P___ -1 18.85 134.21 7 12 296
1927 WP MM 09:00:00 NR 19.12 133.61 1140 1127 __________P___ -1 19.12 133.61 7 13 294
1927 WP MM 10:00:00 NR 19.20 133.40 1127 1097 __________O___ -1 19.20 133.40 7 13 292
1927 WP MM 12:00:00 NR 19.36 132.97 1103 1055 __________P___ -1 19.36 132.97 7 13 291
1927 WP MM 15:00:00 NR 19.60 132.30 1055 989 __________P___ -1 19.60 132.30 7 13 290
1927 WP MM 18:00:00 NR 19.82 131.62 989 920 __________P___ -1 19.82 131.62 7 14 289
1927 WP MM 21:00:00 NR 20.03 130.93 920 901 __________P___ -1 20.03 130.93 7 14 288
1927 WP MM 22:00:00 NR 20.10 130.70 901 853 __________O___ -1 20.10 130.70 7 14 286
1927 WP MM 1927-08-29 00:00:00 NR 20.22 130.24 853 787 __________P___ -1 20.22 130.24 7 14 285
1927 WP MM 03:00:00 NR 20.40 129.53 787 724 __________P___ -1 20.40 129.53 7 14 286
1927 WP MM 06:00:00 NR 20.59 128.83 724 664 __________P___ -1 20.59 128.83 7 14 287
1927 WP MM 09:00:00 NR 20.81 128.13 664 649 __________P___ -1 20.81 128.13 7 14 290
1927 WP MM 10:00:00 NR 20.90 127.90 649 607 __________O___ -1 20.90 127.90 7 15 289
1927 WP MM 12:00:00 NR 21.06 127.38 613 554 __________P___ -1 21.06 127.38 7 15 290
1927 WP MM 15:00:00 NR 21.34 126.62 554 488 __________P___ -1 21.34 126.62 7 15 294
1927 WP MM 18:00:00 NR 21.68 125.91 488 415 __________P___ -1 21.68 125.91 7 14 304
1927 WP MM 21:00:00 NR 22.13 125.35 415 399 __________P___ -1 22.13 125.35 7 14 313
1927 WP MM 22:00:00 NR 22.30 125.20 399 361 __________O___ -1 22.30 125.20 2 15 325
1927 WP MM 1927-08-30 00:00:00 NR 22.74 124.88 361 296 __________P___ -1 22.74 124.88 2 16 333
1927 WP MM 03:00:00 NR 23.50 124.55 296 253 __________P___ -1 23.50 124.55 2 16 345
1927 WP MM 06:00:00 NR 24.28 124.45 253 252 __________P___ -1 24.28 124.45 2 15 3
1927 WP MM 09:00:00 NR 24.99 124.65 271 271 __________P___ -1 24.99 124.65 2 15 19
1927 WP MM 10:00:00 NR 25.20 124.80 282 282 __________O___ -1 25.20 124.80 2 15 43
1927 WP MM 12:00:00 NR 25.55 125.22 326 338 __________P___ -1 25.55 125.22 2 17 59
1927 WP MM 15:00:00 NR 25.93 126.13 423 433 __________P___ -1 25.93 126.13 2 20 71
1927 WP MM 18:00:00 NR 26.18 127.28 547 547 __________P___ -1 26.18 127.28 2 22 79
1927 WP MM 21:00:00 NR 26.35 128.56 552 542 __________P___ -1 26.35 128.56 2 23 82
1927 WP MM 22:00:00 NR 26.40 129.00 539 __________O___ -1 26.40 129.00 7 24 83